»·PEaware :: N4306H KBUR-KLAS

N4306H :: KBUR-KLAS

FLIGHT INFORMATION

Flight Status: Arrived
Operator: Privately registered:
United States
More flights under this callsign
Pilot: Lauro R. (32390)
Aircraft: MOONEY M-20 201 202 205 220 ATS MSE
(M20P)
More flights by this aircraft type
Origin: KBUR Bob Hope-Burbank
United States
Destination: KLAS McCarran Intl
United States
More flights between these airports :: More routes between these airports
Route: +VNY3 DAG CRESO4
File this flight plan on PilotEdge
Remarks:
Altitude:
(Current/Filed)
11,000ft
Speed:
(Current/Filed)
150kts
Departed: 14-Nov-20 09:21 AM
Arrived: 14-Nov-20 10:42 AM
Distance/Time
Traveled:
193nm/1:20
Distance/Time
To Go:
Arrived

Flight Plot

Page will automatically refresh every two minutes.

Flight plan parsing failed; only flown route is shown


Map Options




Map Legend


Flown Route
Filed Route
Departure Airport
Arrival Airport
Navaid (VOR, NDB)
Fix

Horizontal Profiles

Position Reports

Time Latitude Longitude Heading Altitude Ground
Speed
14-Nov-20 09:06 34.200261 -118.362794 220 725ft 0kts
14-Nov-20 09:07 34.200261 -118.362794 220 725ft 0kts
14-Nov-20 09:08 34.200261 -118.362794 220 725ft 0kts
14-Nov-20 09:09 34.200261 -118.362794 220 725ft 0kts
14-Nov-20 09:10 34.200261 -118.362794 220 725ft 0kts
14-Nov-20 09:11 34.200261 -118.362794 220 725ft 0kts
14-Nov-20 09:12 34.200261 -118.362794 220 725ft 0kts
14-Nov-20 09:13 34.200261 -118.362794 220 725ft 0kts
14-Nov-20 09:14 34.200261 -118.362794 220 725ft 0kts
14-Nov-20 09:15 34.200261 -118.362794 220 725ft 0kts
14-Nov-20 09:16 34.200114 -118.363346 268 725ft 10kts
14-Nov-20 09:17 34.199102 -118.366232 272 725ft 13kts
14-Nov-20 09:18 34.198820 -118.368983 189 726ft 0kts
14-Nov-20 09:19 34.198487 -118.368978 164 725ft 9kts
14-Nov-20 09:20 34.197870 -118.364969 91 720ft 64kts
14-Nov-20 09:21 34.193999 -118.337821 149 1476ft 88kts
14-Nov-20 09:22 34.175875 -118.349763 227 2235ft 100kts
14-Nov-20 09:23 34.154580 -118.375595 225 2848ft 123kts
14-Nov-20 09:24 34.148375 -118.409743 341 3497ft 131kts
14-Nov-20 09:25 34.181349 -118.417299 349 4117ft 131kts
14-Nov-20 09:26 34.216732 -118.424775 350 4808ft 129kts
14-Nov-20 09:27 34.251993 -118.432277 350 5511ft 126kts
14-Nov-20 09:28 34.285872 -118.439526 350 6203ft 122kts
14-Nov-20 09:29 34.318890 -118.446606 350 6896ft 118kts
14-Nov-20 09:30 34.350879 -118.453470 350 7591ft 114kts
14-Nov-20 09:31 34.381351 -118.458280 26 8283ft 108kts
14-Nov-20 09:32 34.400515 -118.431437 52 8991ft 105kts
14-Nov-20 09:33 34.418452 -118.403564 53 9686ft 103kts
14-Nov-20 09:34 34.435630 -118.376422 53 10376ft 98kts
14-Nov-20 09:35 34.452692 -118.349313 53 10801ft 118kts
14-Nov-20 09:36 34.476161 -118.311967 53 10793ft 154kts
14-Nov-20 09:37 34.503466 -118.268413 53 10790ft 168kts
14-Nov-20 09:38 34.532395 -118.222196 53 10789ft 174kts
14-Nov-20 09:39 34.561819 -118.175119 53 10789ft 176kts
14-Nov-20 09:40 34.591630 -118.127376 53 10789ft 177kts
14-Nov-20 09:41 34.621356 -118.079687 53 10789ft 177kts
14-Nov-20 09:42 34.635424 -118.023477 82 10745ft 179kts
14-Nov-20 09:43 34.642245 -117.963548 82 10743ft 178kts
14-Nov-20 09:44 34.648812 -117.903721 82 10743ft 178kts
14-Nov-20 09:45 34.655300 -117.844072 82 10743ft 178kts
14-Nov-20 09:46 34.661785 -117.784127 82 10743ft 178kts
14-Nov-20 09:47 34.673753 -117.725611 72 10743ft 177kts
14-Nov-20 09:48 34.688483 -117.668247 72 10743ft 178kts
14-Nov-20 09:49 34.703223 -117.610725 72 10743ft 178kts
14-Nov-20 09:50 34.717886 -117.553375 72 10743ft 178kts
14-Nov-20 09:51 34.732755 -117.495040 72 10744ft 185kts
14-Nov-20 09:52 34.748269 -117.434078 72 10743ft 191kts
14-Nov-20 09:53 34.764042 -117.371958 72 10743ft 193kts
14-Nov-20 09:55 34.779925 -117.309267 73 10743ft 193kts
14-Nov-20 09:56 34.795734 -117.246703 73 10743ft 193kts
14-Nov-20 09:57 34.811580 -117.183838 73 10743ft 195kts
14-Nov-20 09:58 34.827547 -117.120350 73 10743ft 196kts
14-Nov-20 09:59 34.843466 -117.056897 73 10743ft 196kts
14-Nov-20 10:00 34.859361 -116.993382 73 10743ft 196kts
14-Nov-20 10:01 34.875217 -116.929867 73 10743ft 196kts
14-Nov-20 10:02 34.891057 -116.866249 73 10743ft 196kts
14-Nov-20 10:03 34.906841 -116.802714 73 10743ft 196kts
14-Nov-20 10:04 34.922603 -116.739090 73 10736ft 196kts
14-Nov-20 10:05 34.938353 -116.675380 73 10734ft 196kts
14-Nov-20 10:06 34.954063 -116.611687 73 10734ft 196kts
14-Nov-20 10:07 34.974607 -116.550311 61 10736ft 196kts
14-Nov-20 10:08 35.000690 -116.491870 61 10733ft 194kts
14-Nov-20 10:09 35.023505 -116.440653 61 10728ft 150kts
14-Nov-20 10:09 35.038913 -116.405951 61 10730ft 129kts
14-Nov-20 10:11 35.057707 -116.363549 61 10732ft 115kts
14-Nov-20 10:12 35.074663 -116.325157 62 10740ft 146kts
14-Nov-20 10:12 35.091787 -116.286372 62 10737ft 163kts
14-Nov-20 10:14 35.117828 -116.227359 62 10735ft 173kts
14-Nov-20 10:14 35.137029 -116.183800 62 10734ft 175kts
14-Nov-20 10:16 35.164157 -116.122156 62 10734ft 176kts
14-Nov-20 10:16 35.183518 -116.078104 62 10734ft 177kts
14-Nov-20 10:17 35.206866 -116.024883 62 10734ft 177kts
14-Nov-20 10:18 35.230183 -115.971667 62 10734ft 177kts
14-Nov-20 10:19 35.253423 -115.918527 62 10734ft 177kts
14-Nov-20 10:20 35.276687 -115.865253 62 10734ft 177kts
14-Nov-20 10:21 35.299919 -115.811975 62 10734ft 177kts
14-Nov-20 10:22 35.328313 -115.763146 48 10734ft 177kts
14-Nov-20 10:23 35.361819 -115.718713 47 10734ft 177kts
14-Nov-20 10:24 35.395219 -115.674179 47 10734ft 177kts
14-Nov-20 10:25 35.428615 -115.629573 47 10734ft 177kts
14-Nov-20 10:26 35.461971 -115.584963 47 10734ft 177kts
14-Nov-20 10:27 35.495419 -115.540163 47 10734ft 177kts
14-Nov-20 10:28 35.529840 -115.494012 47 10351ft 194kts
14-Nov-20 10:29 35.575854 -115.457009 22 9652ft 206kts
14-Nov-20 10:30 35.629487 -115.430274 22 8953ft 209kts
14-Nov-20 10:31 35.683471 -115.403336 22 8249ft 209kts
14-Nov-20 10:32 35.736618 -115.376809 22 7788ft 197kts
14-Nov-20 10:33 35.785072 -115.350175 26 7597ft 193kts
14-Nov-20 10:34 35.834976 -115.320053 26 6908ft 204kts
14-Nov-20 10:35 35.884234 -115.290303 26 6787ft 188kts
14-Nov-20 10:36 35.930187 -115.262447 26 6799ft 181kts
14-Nov-20 10:37 35.974822 -115.233458 34 6261ft 186kts
14-Nov-20 10:38 36.021187 -115.201540 24 4087ft 155kts
14-Nov-20 10:39 36.051994 -115.183768 25 2917ft 130kts
14-Nov-20 10:40 36.077355 -115.169247 24 2198ft 83kts
14-Nov-20 10:41 36.091227 -115.161282 25 2116ft 34kts
14-Nov-20 10:42 36.094124 -115.160653 296 2105ft 0kts
14-Nov-20 10:43 36.094124 -115.160653 296 2105ft 0kts
14-Nov-20 10:44 36.091013 -115.163793 205 2123ft 11kts
14-Nov-20 10:45 36.085528 -115.167729 265 2151ft 0kts

Navigation Log

Ident Type
Flight plan parsing failed, navigation log unavailable